sensor_id;sensor_type;location;lat;lon;timestamp;pressure;altitude;pressure_sealevel;temperature;humidity
17936;BME280;9093;52.062;4.508;2022-12-29T00:01:21;100134.91;;;11.23;84.25
17936;BME280;9093;52.062;4.508;2022-12-29T00:04:01;100130.50;;;11.22;84.10
17936;BME280;9093;52.062;4.508;2022-12-29T00:06:42;100110.94;;;11.22;84.02
17936;BME280;9093;52.062;4.508;2022-12-29T00:09:22;100113.53;;;11.23;84.17
17936;BME280;9093;52.062;4.508;2022-12-29T00:12:03;100105.41;;;11.25;84.17
17936;BME280;9093;52.062;4.508;2022-12-29T00:14:43;100099.19;;;11.24;84.14
17936;BME280;9093;52.062;4.508;2022-12-29T00:17:42;100091.06;;;11.26;84.01
17936;BME280;9093;52.062;4.508;2022-12-29T00:20:23;100093.88;;;11.24;84.14
17936;BME280;9093;52.062;4.508;2022-12-29T00:23:21;100081.22;;;11.26;83.96
17936;BME280;9093;52.062;4.508;2022-12-29T00:26:20;100088.28;;;11.27;84.01
17936;BME280;9093;52.062;4.508;2022-12-29T00:29:19;100082.00;;;11.28;84.02
17936;BME280;9093;52.062;4.508;2022-12-29T00:32:18;100073.66;;;11.33;83.88
17936;BME280;9093;52.062;4.508;2022-12-29T00:35:28;100072.69;;;11.34;83.74
17936;BME280;9093;52.062;4.508;2022-12-29T00:38:09;100070.78;;;11.36;83.79
17936;BME280;9093;52.062;4.508;2022-12-29T00:41:08;100072.59;;;11.36;83.93
17936;BME280;9093;52.062;4.508;2022-12-29T00:44:08;100073.34;;;11.38;83.88
17936;BME280;9093;52.062;4.508;2022-12-29T00:46:50;100066.06;;;11.40;83.94
17936;BME280;9093;52.062;4.508;2022-12-29T00:49:30;100062.44;;;11.41;83.97
17936;BME280;9093;52.062;4.508;2022-12-29T00:52:11;100056.22;;;11.40;83.98
17936;BME280;9093;52.062;4.508;2022-12-29T00:54:52;100073.13;;;11.41;83.87
17936;BME280;9093;52.062;4.508;2022-12-29T00:57:32;100056.22;;;11.40;83.82
17936;BME280;9093;52.062;4.508;2022-12-29T01:00:12;100052.78;;;11.38;83.86
17936;BME280;9093;52.062;4.508;2022-12-29T01:02:53;100068.00;;;11.38;84.03
17936;BME280;9093;52.062;4.508;2022-12-29T01:05:35;100056.66;;;11.34;83.91
17936;BME280;9093;52.062;4.508;2022-12-29T01:08:15;100048.75;;;11.33;83.76
17936;BME280;9093;52.062;4.508;2022-12-29T01:10:59;100071.84;;;11.34;83.84
17936;BME280;9093;52.062;4.508;2022-12-29T01:13:39;100067.56;;;11.31;83.86
17936;BME280;9093;52.062;4.508;2022-12-29T01:16:21;100061.38;;;11.31;83.66
17936;BME280;9093;52.062;4.508;2022-12-29T01:19:01;100065.75;;;11.32;83.92
17936;BME280;9093;52.062;4.508;2022-12-29T01:21:41;100058.47;;;11.34;83.84
17936;BME280;9093;52.062;4.508;2022-12-29T01:24:21;100076.22;;;11.35;83.70
17936;BME280;9093;52.062;4.508;2022-12-29T01:27:02;100076.13;;;11.36;83.85
17936;BME280;9093;52.062;4.508;2022-12-29T01:29:42;100077.06;;;11.35;83.67
17936;BME280;9093;52.062;4.508;2022-12-29T01:32:22;100071.63;;;11.37;83.75
17936;BME280;9093;52.062;4.508;2022-12-29T01:35:03;100066.28;;;11.37;83.83
17936;BME280;9093;52.062;4.508;2022-12-29T01:37:43;100068.00;;;11.38;83.93
17936;BME280;9093;52.062;4.508;2022-12-29T01:40:23;100060.94;;;11.37;83.89
17936;BME280;9093;52.062;4.508;2022-12-29T01:43:04;100063.72;;;11.35;83.94
17936;BME280;9093;52.062;4.508;2022-12-29T01:45:48;100073.56;;;11.35;83.97
17936;BME280;9093;52.062;4.508;2022-12-29T01:48:30;100060.28;;;11.33;83.80
17936;BME280;9093;52.062;4.508;2022-12-29T01:51:10;100070.97;;;11.33;83.67
17936;BME280;9093;52.062;4.508;2022-12-29T01:53:50;100066.72;;;11.31;83.99
17936;BME280;9093;52.062;4.508;2022-12-29T01:56:31;100076.53;;;11.30;84.10
17936;BME280;9093;52.062;4.508;2022-12-29T01:59:15;100081.03;;;11.29;83.76
17936;BME280;9093;52.062;4.508;2022-12-29T02:02:01;100083.59;;;11.31;83.88
17936;BME280;9093;52.062;4.508;2022-12-29T02:04:41;100083.59;;;11.31;83.84
17936;BME280;9093;52.062;4.508;2022-12-29T02:07:24;100095.16;;;11.32;83.96
17936;BME280;9093;52.062;4.508;2022-12-29T02:10:06;100100.50;;;11.32;83.99
17936;BME280;9093;52.062;4.508;2022-12-29T02:12:46;100079.66;;;11.37;83.76
17936;BME280;9093;52.062;4.508;2022-12-29T02:18:38;100073.34;;;11.38;83.68
17936;BME280;9093;52.062;4.508;2022-12-29T02:21:31;100073.34;;;11.38;83.79
17936;BME280;9093;52.062;4.508;2022-12-29T02:32:46;100083.38;;;11.21;83.40
17936;BME280;9093;52.062;4.508;2022-12-29T02:35:44;100078.84;;;11.09;83.47
17936;BME280;9093;52.062;4.508;2022-12-29T02:38:37;100093.81;;;10.99;83.63
17936;BME280;9093;52.062;4.508;2022-12-29T02:41:31;100080.09;;;10.91;83.83
17936;BME280;9093;52.062;4.508;2022-12-29T02:44:14;100078.81;;;10.84;84.04
17936;BME280;9093;52.062;4.508;2022-12-29T02:47:11;100064.91;;;10.79;84.06
17936;BME280;9093;52.062;4.508;2022-12-29T02:50:13;100072.25;;;10.75;84.00
17936;BME280;9093;52.062;4.508;2022-12-29T02:52:59;100079.81;;;10.69;83.94
17936;BME280;9093;52.062;4.508;2022-12-29T02:55:47;100070.22;;;10.66;84.02
17936;BME280;9093;52.062;4.508;2022-12-29T02:58:27;100056.88;;;10.66;84.10
17936;BME280;9093;52.062;4.508;2022-12-29T03:01:22;100069.34;;;10.66;83.94
17936;BME280;9093;52.062;4.508;2022-12-29T03:04:10;100102.25;;;10.66;83.83
17936;BME280;9093;52.062;4.508;2022-12-29T03:07:16;100076.41;;;10.67;83.65
17936;BME280;9093;52.062;4.508;2022-12-29T03:16:01;100060.03;;;10.59;83.73
17936;BME280;9093;52.062;4.508;2022-12-29T03:18:55;100061.00;;;10.58;83.59
17936;BME280;9093;52.062;4.508;2022-12-29T03:21:41;100056.59;;;10.57;83.52
17936;BME280;9093;52.062;4.508;2022-12-29T03:24:41;100062.94;;;10.56;83.60
17936;BME280;9093;52.062;4.508;2022-12-29T03:27:27;100043.25;;;10.57;83.63
17936;BME280;9093;52.062;4.508;2022-12-29T03:30:08;100051.38;;;10.55;83.49
17936;BME280;9093;52.062;4.508;2022-12-29T03:32:52;100051.38;;;10.55;83.55
17936;BME280;9093;52.062;4.508;2022-12-29T03:35:34;100037.06;;;10.56;83.36
17936;BME280;9093;52.062;4.508;2022-12-29T03:38:19;100041.56;;;10.56;83.23
17936;BME280;9093;52.062;4.508;2022-12-29T03:41:03;100051.06;;;10.60;83.27
17936;BME280;9093;52.062;4.508;2022-12-29T03:43:44;100048.41;;;10.60;83.18
17936;BME280;9093;52.062;4.508;2022-12-29T03:46:25;100058.00;;;10.62;83.28
17936;BME280;9093;52.062;4.508;2022-12-29T03:49:05;100063.16;;;10.65;83.10
17936;BME280;9093;52.062;4.508;2022-12-29T03:51:45;100060.41;;;10.67;82.96
17936;BME280;9093;52.062;4.508;2022-12-29T03:54:31;100062.09;;;10.68;82.74
17936;BME280;9093;52.062;4.508;2022-12-29T03:57:11;100055.06;;;10.67;82.77
17936;BME280;9093;52.062;4.508;2022-12-29T03:59:52;100046.28;;;10.65;82.67
17936;BME280;9093;52.062;4.508;2022-12-29T04:02:32;100074.69;;;10.66;82.68
17936;BME280;9093;52.062;4.508;2022-12-29T04:05:12;100076.59;;;10.64;82.40
17936;BME280;9093;52.062;4.508;2022-12-29T04:07:52;100072.34;;;10.61;82.42
17936;BME280;9093;52.062;4.508;2022-12-29T04:10:33;100087.50;;;10.61;82.28
17936;BME280;9093;52.062;4.508;2022-12-29T04:13:13;100085.78;;;10.60;82.44
17936;BME280;9093;52.062;4.508;2022-12-29T04:15:53;100082.16;;;10.61;82.24
17936;BME280;9093;52.062;4.508;2022-12-29T04:18:33;100095.59;;;10.59;82.01
17936;BME280;9093;52.062;4.508;2022-12-29T04:21:14;100078.94;;;10.56;81.99
17936;BME280;9093;52.062;4.508;2022-12-29T04:23:54;100082.56;;;10.55;82.16
17936;BME280;9093;52.062;4.508;2022-12-29T04:26:34;100073.78;;;10.53;82.20
17936;BME280;9093;52.062;4.508;2022-12-29T04:29:14;100072.28;;;10.48;82.34
17936;BME280;9093;52.062;4.508;2022-12-29T04:31:55;100096.31;;;10.48;82.28
17936;BME280;9093;52.062;4.508;2022-12-29T04:34:35;100076.75;;;10.48;82.33
17936;BME280;9093;52.062;4.508;2022-12-29T04:37:15;100081.34;;;10.46;82.27
17936;BME280;9093;52.062;4.508;2022-12-29T04:39:55;100077.16;;;10.42;82.22
17936;BME280;9093;52.062;4.508;2022-12-29T04:42:35;100091.78;;;10.36;82.26
17936;BME280;9093;52.062;4.508;2022-12-29T04:45:16;100101.00;;;10.31;82.62
17936;BME280;9093;52.062;4.508;2022-12-29T04:47:56;100084.34;;;10.27;82.37
17936;BME280;9093;52.062;4.508;2022-12-29T04:50:36;100092.56;;;10.24;82.47
17936;BME280;9093;52.062;4.508;2022-12-29T04:53:17;100095.41;;;10.21;82.61
17936;BME280;9093;52.062;4.508;2022-12-29T04:55:57;100092.75;;;10.21;82.53
17936;BME280;9093;52.062;4.508;2022-12-29T04:58:37;100092.84;;;10.20;82.61
17936;BME280;9093;52.062;4.508;2022-12-29T05:01:17;100098.25;;;10.18;82.50
17936;BME280;9093;52.062;4.508;2022-12-29T05:03:58;100085.91;;;10.17;82.52
17936;BME280;9093;52.062;4.508;2022-12-29T05:06:38;100098.16;;;10.20;82.61
17936;BME280;9093;52.062;4.508;2022-12-29T05:09:18;100101.78;;;10.19;82.71
17936;BME280;9093;52.062;4.508;2022-12-29T05:11:58;100121.22;;;10.21;82.51
17936;BME280;9093;52.062;4.508;2022-12-29T05:14:38;100131.03;;;10.20;82.56
17936;BME280;9093;52.062;4.508;2022-12-29T05:17:19;100117.78;;;10.19;82.43
17936;BME280;9093;52.062;4.508;2022-12-29T05:19:59;100132.94;;;10.18;82.48
17936;BME280;9093;52.062;4.508;2022-12-29T05:22:39;100132.09;;;10.18;82.43
17936;BME280;9093;52.062;4.508;2022-12-29T05:25:19;100110.78;;;10.18;82.39
17936;BME280;9093;52.062;4.508;2022-12-29T05:27:59;100109.91;;;10.17;82.49
17936;BME280;9093;52.062;4.508;2022-12-29T05:30:40;100106.44;;;10.15;82.34
17936;BME280;9093;52.062;4.508;2022-12-29T05:33:20;100099.38;;;10.14;82.38
17936;BME280;9093;52.062;4.508;2022-12-29T05:36:04;100107.38;;;10.14;82.71
17936;BME280;9093;52.062;4.508;2022-12-29T05:38:44;100119.88;;;10.14;82.64
17936;BME280;9093;52.062;4.508;2022-12-29T05:41:24;100119.00;;;10.13;82.55
17936;BME280;9093;52.062;4.508;2022-12-29T05:44:05;100117.19;;;10.14;82.51
17936;BME280;9093;52.062;4.508;2022-12-29T05:46:46;100123.38;;;10.14;82.66
17936;BME280;9093;52.062;4.508;2022-12-29T05:49:26;100136.72;;;10.14;82.41
17936;BME280;9093;52.062;4.508;2022-12-29T05:52:08;100128.72;;;10.14;82.67
17936;BME280;9093;52.062;4.508;2022-12-29T05:54:51;100126.34;;;10.09;82.66
17936;BME280;9093;52.062;4.508;2022-12-29T05:57:31;100133.69;;;10.06;82.64
17936;BME280;9093;52.062;4.508;2022-12-29T06:00:11;100144.56;;;10.03;82.55
17936;BME280;9093;52.062;4.508;2022-12-29T06:02:51;100142.06;;;10.00;82.73
17936;BME280;9093;52.062;4.508;2022-12-29T06:05:32;100145.81;;;9.97;82.33
17936;BME280;9093;52.062;4.508;2022-12-29T06:08:12;100142.34;;;9.95;82.32
17936;BME280;9093;52.062;4.508;2022-12-29T06:10:52;100141.72;;;9.92;82.56
17936;BME280;9093;52.062;4.508;2022-12-29T06:13:32;100155.22;;;9.89;82.44
17936;BME280;9093;52.062;4.508;2022-12-29T06:16:13;100144.63;;;9.87;82.76
17936;BME280;9093;52.062;4.508;2022-12-29T06:18:53;100157.09;;;9.87;82.68
17936;BME280;9093;52.062;4.508;2022-12-29T06:21:33;100139.50;;;9.84;82.67
17936;BME280;9093;52.062;4.508;2022-12-29T06:24:13;100143.97;;;9.84;82.68
17936;BME280;9093;52.062;4.508;2022-12-29T06:26:54;100144.94;;;9.83;82.41
17936;BME280;9093;52.062;4.508;2022-12-29T06:29:34;100148.47;;;9.83;82.53
17936;BME280;9093;52.062;4.508;2022-12-29T06:32:16;100144.94;;;9.83;82.47
17936;BME280;9093;52.062;4.508;2022-12-29T06:34:57;100146.81;;;9.81;82.38
17936;BME280;9093;52.062;4.508;2022-12-29T06:37:37;100153.13;;;9.80;82.16
17936;BME280;9093;52.062;4.508;2022-12-29T06:40:17;100140.75;;;9.79;82.32
17936;BME280;9093;52.062;4.508;2022-12-29T06:42:57;100170.94;;;9.79;82.06
17936;BME280;9093;52.062;4.508;2022-12-29T06:45:38;100156.44;;;9.83;82.11
17936;BME280;9093;52.062;4.508;2022-12-29T06:48:19;100152.94;;;9.83;81.80
17936;BME280;9093;52.062;4.508;2022-12-29T06:50:59;100135.91;;;9.85;81.74
17936;BME280;9093;52.062;4.508;2022-12-29T06:53:39;100155.50;;;9.84;81.55
17936;BME280;9093;52.062;4.508;2022-12-29T06:56:20;100152.94;;;9.83;81.57
17936;BME280;9093;52.062;4.508;2022-12-29T06:59:00;100153.13;;;9.80;81.69
17936;BME280;9093;52.062;4.508;2022-12-29T07:01:41;100161.38;;;9.75;81.42
17936;BME280;9093;52.062;4.508;2022-12-29T07:04:21;100170.34;;;9.74;81.55
17936;BME280;9093;52.062;4.508;2022-12-29T07:07:01;100169.50;;;9.74;81.53
17936;BME280;9093;52.062;4.508;2022-12-29T07:09:41;100179.09;;;9.76;81.50
17936;BME280;9093;52.062;4.508;2022-12-29T07:12:21;100164.81;;;9.77;81.64
17936;BME280;9093;52.062;4.508;2022-12-29T07:15:02;100168.25;;;9.79;81.57
17936;BME280;9093;52.062;4.508;2022-12-29T07:17:42;100178.06;;;9.79;81.74
17936;BME280;9093;52.062;4.508;2022-12-29T07:20:22;100195.66;;;9.81;81.48
17936;BME280;9093;52.062;4.508;2022-12-29T07:23:02;100174.25;;;9.83;81.58
17936;BME280;9093;52.062;4.508;2022-12-29T07:25:43;100181.22;;;9.85;81.64
17936;BME280;9093;52.062;4.508;2022-12-29T07:28:23;100166.81;;;9.88;81.74
17936;BME280;9093;52.062;4.508;2022-12-29T07:31:03;100168.53;;;9.89;81.53
17936;BME280;9093;52.062;4.508;2022-12-29T07:33:44;100164.94;;;9.90;81.65
17936;BME280;9093;52.062;4.508;2022-12-29T07:36:24;100157.78;;;9.90;81.65
17936;BME280;9093;52.062;4.508;2022-12-29T07:39:04;100163.91;;;9.92;81.70
17936;BME280;9093;52.062;4.508;2022-12-29T07:41:45;100156.56;;;9.96;81.76
17936;BME280;9093;52.062;4.508;2022-12-29T07:44:25;100159.22;;;9.96;81.45
17936;BME280;9093;52.062;4.508;2022-12-29T07:47:05;100161.72;;;9.99;81.52
17936;BME280;9093;52.062;4.508;2022-12-29T07:49:45;100153.50;;;10.02;81.38
17936;BME280;9093;52.062;4.508;2022-12-29T07:52:25;100158.66;;;10.05;81.62
17936;BME280;9093;52.062;4.508;2022-12-29T07:55:06;100155.88;;;10.06;81.41
17936;BME280;9093;52.062;4.508;2022-12-29T07:57:46;100170.06;;;10.07;81.52
17936;BME280;9093;52.062;4.508;2022-12-29T08:00:26;100165.50;;;10.09;81.44
17936;BME280;9093;52.062;4.508;2022-12-29T08:03:06;100170.84;;;10.09;81.23
17936;BME280;9093;52.062;4.508;2022-12-29T08:05:47;100169.97;;;10.08;80.94
17936;BME280;9093;52.062;4.508;2022-12-29T08:08:27;100183.41;;;10.07;80.88
17936;BME280;9093;52.062;4.508;2022-12-29T08:11:08;100176.34;;;10.06;81.10
17936;BME280;9093;52.062;4.508;2022-12-29T08:13:48;100177.31;;;10.05;80.79
17936;BME280;9093;52.062;4.508;2022-12-29T08:16:29;100185.50;;;10.02;80.92
17936;BME280;9093;52.062;4.508;2022-12-29T08:19:10;100194.44;;;10.01;80.74
17936;BME280;9093;52.062;4.508;2022-12-29T08:21:50;100185.22;;;9.92;80.83
17936;BME280;9093;52.062;4.508;2022-12-29T08:24:31;100195.41;;;9.86;81.07
17936;BME280;9093;52.062;4.508;2022-12-29T08:27:11;100199.19;;;9.82;80.92
17936;BME280;9093;52.062;4.508;2022-12-29T08:29:51;100204.72;;;9.79;81.04
17936;BME280;9093;52.062;4.508;2022-12-29T08:32:31;100184.34;;;9.78;80.85
17936;BME280;9093;52.062;4.508;2022-12-29T08:35:12;100213.84;;;9.75;80.98
17936;BME280;9093;52.062;4.508;2022-12-29T08:37:52;100211.28;;;9.73;81.18
17936;BME280;9093;52.062;4.508;2022-12-29T08:40:32;100217.47;;;9.74;81.29
17936;BME280;9093;52.062;4.508;2022-12-29T08:43:16;100210.44;;;9.73;81.10
17936;BME280;9093;52.062;4.508;2022-12-29T08:45:59;100217.66;;;9.71;81.02
17936;BME280;9093;52.062;4.508;2022-12-29T08:48:39;100242.59;;;9.69;81.33
17936;BME280;9093;52.062;4.508;2022-12-29T08:51:19;100230.41;;;9.65;81.32
17936;BME280;9093;52.062;4.508;2022-12-29T08:53:59;100235.91;;;9.62;81.23
17936;BME280;9093;52.062;4.508;2022-12-29T08:56:40;100255.50;;;9.61;81.47
17936;BME280;9093;52.062;4.508;2022-12-29T08:59:20;100249.34;;;9.61;81.61
17936;BME280;9093;52.062;4.508;2022-12-29T09:02:00;100252.09;;;9.59;81.54
17936;BME280;9093;52.062;4.508;2022-12-29T09:04:41;100277.03;;;9.58;81.63
17936;BME280;9093;52.062;4.508;2022-12-29T09:07:21;100273.41;;;9.59;81.67
17936;BME280;9093;52.062;4.508;2022-12-29T09:10:02;100278.75;;;9.59;82.00
17936;BME280;9093;52.062;4.508;2022-12-29T09:12:42;100269.81;;;9.60;81.98
17936;BME280;9093;52.062;4.508;2022-12-29T09:15:22;100298.91;;;9.63;82.00
17936;BME280;9093;52.062;4.508;2022-12-29T09:18:02;100308.63;;;9.64;81.91
17936;BME280;9093;52.062;4.508;2022-12-29T09:20:43;100307.69;;;9.65;81.93
17936;BME280;9093;52.062;4.508;2022-12-29T09:23:23;100296.84;;;9.68;81.96
17936;BME280;9093;52.062;4.508;2022-12-29T09:26:03;100308.28;;;9.71;82.00
17936;BME280;9093;52.062;4.508;2022-12-29T09:28:44;100319.59;;;9.74;82.24
17936;BME280;9093;52.062;4.508;2022-12-29T09:31:24;100316.69;;;9.79;82.07
17936;BME280;9093;52.062;4.508;2022-12-29T09:34:05;100312.97;;;9.81;82.11
17936;BME280;9093;52.062;4.508;2022-12-29T09:36:45;100325.28;;;9.84;82.20
17936;BME280;9093;52.062;4.508;2022-12-29T09:39:25;100332.13;;;9.88;82.02
17936;BME280;9093;52.062;4.508;2022-12-29T09:47:28;100356.19;;;10.02;82.11
17936;BME280;9093;52.062;4.508;2022-12-29T09:52:54;100357.53;;;10.09;81.72
17936;BME280;9093;52.062;4.508;2022-12-29T09:55:36;100361.00;;;10.11;81.92
17936;BME280;9093;52.062;4.508;2022-12-29T10:04:07;100387.34;;;10.17;81.66
17936;BME280;9093;52.062;4.508;2022-12-29T10:06:54;100396.94;;;10.20;81.91
17936;BME280;9093;52.062;4.508;2022-12-29T10:15:11;100408.88;;;10.28;81.83
17936;BME280;9093;52.062;4.508;2022-12-29T10:20:53;100432.69;;;10.31;81.87
17936;BME280;9093;52.062;4.508;2022-12-29T10:23:42;100430.81;;;10.33;81.91
17936;BME280;9093;52.062;4.508;2022-12-29T10:26:27;100428.22;;;10.32;81.35
17936;BME280;9093;52.062;4.508;2022-12-29T10:29:13;100431.97;;;10.29;81.63
17936;BME280;9093;52.062;4.508;2022-12-29T10:31:56;100435.66;;;10.27;81.53
17936;BME280;9093;52.062;4.508;2022-12-29T10:34:39;100446.31;;;10.27;81.46
17936;BME280;9093;52.062;4.508;2022-12-29T10:40:25;100443.13;;;10.36;81.44
17936;BME280;9093;52.062;4.508;2022-12-29T10:43:50;100454.19;;;10.44;81.24
17936;BME280;9093;52.062;4.508;2022-12-29T10:46:12;100475.88;;;10.54;81.35
17936;BME280;9093;52.062;4.508;2022-12-29T10:48:53;100466.56;;;10.61;81.50
17936;BME280;9093;52.062;4.508;2022-12-29T10:51:42;100464.25;;;10.69;81.36
17936;BME280;9093;52.062;4.508;2022-12-29T11:00:14;100469.34;;;10.87;81.19
17936;BME280;9093;52.062;4.508;2022-12-29T11:03:01;100485.97;;;10.93;81.39
17936;BME280;9093;52.062;4.508;2022-12-29T11:08:55;100505.34;;;10.96;81.02
17936;BME280;9093;52.062;4.508;2022-12-29T11:11:36;100505.16;;;10.99;81.03
17936;BME280;9093;52.062;4.508;2022-12-29T11:14:21;100511.25;;;11.01;80.86
17936;BME280;9093;52.062;4.508;2022-12-29T11:17:05;100530.63;;;11.05;80.89
17936;BME280;9093;52.062;4.508;2022-12-29T11:19:49;100521.69;;;11.06;81.00
17936;BME280;9093;52.062;4.508;2022-12-29T11:22:29;100506.50;;;11.06;80.84
17936;BME280;9093;52.062;4.508;2022-12-29T11:25:10;100515.47;;;11.05;80.90
17936;BME280;9093;52.062;4.508;2022-12-29T11:27:55;100523.56;;;11.04;80.78
17936;BME280;9093;52.062;4.508;2022-12-29T11:30:36;100525.53;;;11.00;80.73
17936;BME280;9093;52.062;4.508;2022-12-29T11:33:16;100522.22;;;10.97;80.69
17936;BME280;9093;52.062;4.508;2022-12-29T11:36:19;100542.06;;;10.93;80.47
17936;BME280;9093;52.062;4.508;2022-12-29T11:38:57;100535.09;;;10.90;80.58
17936;BME280;9093;52.062;4.508;2022-12-29T11:41:37;100534.31;;;10.88;80.26
17936;BME280;9093;52.062;4.508;2022-12-29T11:44:17;100545.19;;;10.85;80.32
17936;BME280;9093;52.062;4.508;2022-12-29T11:46:58;100541.72;;;10.83;80.29
17936;BME280;9093;52.062;4.508;2022-12-29T11:49:38;100549.94;;;10.80;80.35
17936;BME280;9093;52.062;4.508;2022-12-29T11:52:26;100553.56;;;10.79;80.29
17936;BME280;9093;52.062;4.508;2022-12-29T11:55:13;100552.63;;;10.80;80.25
17936;BME280;9093;52.062;4.508;2022-12-29T11:57:57;100547.28;;;10.80;80.07
17936;BME280;9093;52.062;4.508;2022-12-29T12:00:38;100564.25;;;10.79;79.68
17936;BME280;9093;52.062;4.508;2022-12-29T12:03:21;100557.19;;;10.78;79.81
17936;BME280;9093;52.062;4.508;2022-12-29T12:06:03;100556.41;;;10.76;79.78
17936;BME280;9093;52.062;4.508;2022-12-29T12:08:53;100550.31;;;10.74;79.64
17936;BME280;9093;52.062;4.508;2022-12-29T12:11:34;100556.59;;;10.73;79.47
17936;BME280;9093;52.062;4.508;2022-12-29T12:14:19;100562.81;;;10.73;79.80
17936;BME280;9093;52.062;4.508;2022-12-29T12:19:43;100553.56;;;10.79;79.65
17936;BME280;9093;52.062;4.508;2022-12-29T12:22:36;100558.69;;;10.82;79.72
17936;BME280;9093;52.062;4.508;2022-12-29T12:25:19;100550.31;;;10.88;79.45
17936;BME280;9093;52.062;4.508;2022-12-29T12:28:15;100557.16;;;10.94;79.68
17936;BME280;9093;52.062;4.508;2022-12-29T12:30:59;100561.34;;;10.98;79.61
17936;BME280;9093;52.062;4.508;2022-12-29T12:33:41;100563.72;;;11.02;79.69
17936;BME280;9093;52.062;4.508;2022-12-29T12:36:35;100567.19;;;11.04;79.51
17936;BME280;9093;52.062;4.508;2022-12-29T12:45:31;100577.66;;;11.07;79.47
17936;BME280;9093;52.062;4.508;2022-12-29T12:59:30;100597.16;;;11.09;79.17
17936;BME280;9093;52.062;4.508;2022-12-29T13:02:21;100605.16;;;11.09;79.43
17936;BME280;9093;52.062;4.508;2022-12-29T13:10:58;100591.78;;;11.09;79.22
17936;BME280;9093;52.062;4.508;2022-12-29T13:13:49;100598.88;;;11.10;79.27
17936;BME280;9093;52.062;4.508;2022-12-29T13:16:36;100595.25;;;11.11;79.18
17936;BME280;9093;52.062;4.508;2022-12-29T13:22:09;100601.53;;;11.10;79.15
17936;BME280;9093;52.062;4.508;2022-12-29T13:27:43;100601.47;;;11.12;79.15
17936;BME280;9093;52.062;4.508;2022-12-29T13:30:34;100593.31;;;11.13;78.99
17936;BME280;9093;52.062;4.508;2022-12-29T13:35:59;100610.34;;;11.12;79.04
17936;BME280;9093;52.062;4.508;2022-12-29T13:38:46;100609.34;;;11.13;78.94
17936;BME280;9093;52.062;4.508;2022-12-29T13:41:31;100596.09;;;11.12;79.05
17936;BME280;9093;52.062;4.508;2022-12-29T13:44:15;100618.50;;;11.09;78.81
17936;BME280;9093;52.062;4.508;2022-12-29T13:46:56;100627.47;;;11.08;78.84
17936;BME280;9093;52.062;4.508;2022-12-29T13:49:38;100605.25;;;11.08;78.94
17936;BME280;9093;52.062;4.508;2022-12-29T13:52:42;100606.31;;;11.05;78.81
17936;BME280;9093;52.062;4.508;2022-12-29T13:58:31;100621.34;;;10.92;78.73
17936;BME280;9093;52.062;4.508;2022-12-29T14:01:16;100605.25;;;10.78;79.11
17936;BME280;9093;52.062;4.508;2022-12-29T14:03:59;100614.75;;;10.68;78.89
17936;BME280;9093;52.062;4.508;2022-12-29T14:06:40;100603.81;;;10.57;78.88
17936;BME280;9093;52.062;4.508;2022-12-29T14:18:00;100608.13;;;10.43;79.08
17936;BME280;9093;52.062;4.508;2022-12-29T14:23:44;100602.19;;;10.38;78.98
17936;BME280;9093;52.062;4.508;2022-12-29T14:32:15;100625.63;;;10.33;78.94
17936;BME280;9093;52.062;4.508;2022-12-29T14:38:07;100615.03;;;10.32;78.70
17936;BME280;9093;52.062;4.508;2022-12-29T14:41:15;100623.03;;;10.32;78.80
17936;BME280;9093;52.062;4.508;2022-12-29T14:43:57;100620.47;;;10.30;78.87
17936;BME280;9093;52.062;4.508;2022-12-29T14:46:45;100621.22;;;10.32;78.53
17936;BME280;9093;52.062;4.508;2022-12-29T14:49:47;100615.97;;;10.31;78.52
17936;BME280;9093;52.062;4.508;2022-12-29T14:52:26;100631.88;;;10.32;78.70
17936;BME280;9093;52.062;4.508;2022-12-29T14:58:04;100635.50;;;10.31;78.82
17936;BME280;9093;52.062;4.508;2022-12-29T15:00:45;100640.84;;;10.31;78.60
17936;BME280;9093;52.062;4.508;2022-12-29T15:03:29;100639.16;;;10.30;78.61
17936;BME280;9093;52.062;4.508;2022-12-29T15:06:10;100642.75;;;10.29;78.85
17936;BME280;9093;52.062;4.508;2022-12-29T15:08:58;100645.41;;;10.29;78.89
17936;BME280;9093;52.062;4.508;2022-12-29T15:14:54;100648.25;;;10.26;79.15
17936;BME280;9093;52.062;4.508;2022-12-29T15:20:23;100657.19;;;10.25;79.13
17936;BME280;9093;52.062;4.508;2022-12-29T15:23:09;100648.44;;;10.23;79.05
17936;BME280;9093;52.062;4.508;2022-12-29T15:25:53;100646.78;;;10.21;79.07
17936;BME280;9093;52.062;4.508;2022-12-29T15:28:38;100654.84;;;10.19;79.14
17936;BME280;9093;52.062;4.508;2022-12-29T15:31:19;100650.47;;;10.18;79.10
17936;BME280;9093;52.062;4.508;2022-12-29T15:34:10;100648.78;;;10.17;79.35
17936;BME280;9093;52.062;4.508;2022-12-29T15:36:51;100661.13;;;10.18;79.29
17936;BME280;9093;52.062;4.508;2022-12-29T15:39:31;100670.13;;;10.17;79.27
17936;BME280;9093;52.062;4.508;2022-12-29T15:45:32;100675.56;;;10.14;79.39
17936;BME280;9093;52.062;4.508;2022-12-29T15:48:17;100686.41;;;10.11;79.38
17936;BME280;9093;52.062;4.508;2022-12-29T15:50:58;100682.97;;;10.09;79.27
17936;BME280;9093;52.062;4.508;2022-12-29T15:53:39;100689.50;;;10.03;79.19
17936;BME280;9093;52.062;4.508;2022-12-29T15:56:20;100695.09;;;9.99;79.21
17936;BME280;9093;52.062;4.508;2022-12-29T15:59:00;100698.91;;;9.93;79.38
17936;BME280;9093;52.062;4.508;2022-12-29T16:01:41;100707.16;;;9.89;79.16
17936;BME280;9093;52.062;4.508;2022-12-29T16:04:21;100709.03;;;9.87;79.37
17936;BME280;9093;52.062;4.508;2022-12-29T16:07:03;100705.78;;;9.82;79.32
17936;BME280;9093;52.062;4.508;2022-12-29T16:09:44;100709.56;;;9.78;79.18
17936;BME280;9093;52.062;4.508;2022-12-29T16:12:32;100708.81;;;9.74;79.41
17936;BME280;9093;52.062;4.508;2022-12-29T16:15:13;100735.75;;;9.69;79.24
17936;BME280;9093;52.062;4.508;2022-12-29T16:17:54;100725.16;;;9.68;79.20
17936;BME280;9093;52.062;4.508;2022-12-29T16:20:41;100736.84;;;9.65;79.08
17936;BME280;9093;52.062;4.508;2022-12-29T16:23:23;100731.59;;;9.64;79.46
17936;BME280;9093;52.062;4.508;2022-12-29T16:26:04;100715.66;;;9.62;79.18
17936;BME280;9093;52.062;4.508;2022-12-29T16:28:56;100714.97;;;9.59;78.94